sensor_id;sensor_type;location;lat;lon;timestamp;P1;durP1;ratioP1;P2;durP2;ratioP2
74180;SDS011;62544;50.826;14.354;2022-12-18T00:01:24;18.59;;;9.93;;
74180;SDS011;62544;50.826;14.354;2022-12-18T00:05:27;18.59;;;9.93;;
74180;SDS011;62544;50.826;14.354;2022-12-18T00:09:31;18.59;;;9.93;;
74180;SDS011;62544;50.826;14.354;2022-12-18T00:13:35;18.98;;;8.53;;
74180;SDS011;62544;50.826;14.354;2022-12-18T00:17:39;18.98;;;8.53;;
74180;SDS011;62544;50.826;14.354;2022-12-18T00:21:43;24.13;;;11.11;;
74180;SDS011;62544;50.826;14.354;2022-12-18T00:25:47;24.13;;;11.11;;
74180;SDS011;62544;50.826;14.354;2022-12-18T00:29:51;24.13;;;11.11;;
74180;SDS011;62544;50.826;14.354;2022-12-18T00:33:55;21.93;;;11.16;;
74180;SDS011;62544;50.826;14.354;2022-12-18T00:37:59;21.93;;;11.16;;
74180;SDS011;62544;50.826;14.354;2022-12-18T00:42:03;20.47;;;10.24;;
74180;SDS011;62544;50.826;14.354;2022-12-18T00:46:07;20.47;;;10.24;;
74180;SDS011;62544;50.826;14.354;2022-12-18T00:50:11;20.47;;;10.24;;
74180;SDS011;62544;50.826;14.354;2022-12-18T00:54:15;19.61;;;9.42;;
74180;SDS011;62544;50.826;14.354;2022-12-18T00:58:19;19.61;;;9.42;;
74180;SDS011;62544;50.826;14.354;2022-12-18T01:02:23;19.81;;;9.63;;
74180;SDS011;62544;50.826;14.354;2022-12-18T01:06:27;19.81;;;9.63;;
74180;SDS011;62544;50.826;14.354;2022-12-18T01:10:31;19.63;;;9.82;;
74180;SDS011;62544;50.826;14.354;2022-12-18T01:14:35;19.63;;;9.82;;
74180;SDS011;62544;50.826;14.354;2022-12-18T01:18:39;19.63;;;9.82;;
74180;SDS011;62544;50.826;14.354;2022-12-18T01:22:43;19.58;;;10.56;;
74180;SDS011;62544;50.826;14.354;2022-12-18T01:26:47;19.58;;;10.56;;
74180;SDS011;62544;50.826;14.354;2022-12-18T01:30:51;19.16;;;9.61;;
74180;SDS011;62544;50.826;14.354;2022-12-18T01:34:55;19.16;;;9.61;;
74180;SDS011;62544;50.826;14.354;2022-12-18T01:38:59;19.16;;;9.61;;
74180;SDS011;62544;50.826;14.354;2022-12-18T01:43:03;21.88;;;11.66;;
74180;SDS011;62544;50.826;14.354;2022-12-18T01:47:07;21.88;;;11.66;;
74180;SDS011;62544;50.826;14.354;2022-12-18T01:51:11;21.73;;;11.03;;
74180;SDS011;62544;50.826;14.354;2022-12-18T01:55:16;21.73;;;11.03;;
74180;SDS011;62544;50.826;14.354;2022-12-18T01:59:19;21.73;;;11.03;;
74180;SDS011;62544;50.826;14.354;2022-12-18T02:03:23;20.25;;;9.71;;
74180;SDS011;62544;50.826;14.354;2022-12-18T02:11:39;16.68;;;8.84;;
74180;SDS011;62544;50.826;14.354;2022-12-18T02:15:44;16.68;;;8.84;;
74180;SDS011;62544;50.826;14.354;2022-12-18T02:19:41;16.68;;;8.84;;
74180;SDS011;62544;50.826;14.354;2022-12-18T02:23:47;20.93;;;10.57;;
74180;SDS011;62544;50.826;14.354;2022-12-18T02:27:47;20.93;;;10.57;;
74180;SDS011;62544;50.826;14.354;2022-12-18T02:31:51;22.45;;;10.99;;
74180;SDS011;62544;50.826;14.354;2022-12-18T02:35:55;22.45;;;10.99;;
74180;SDS011;62544;50.826;14.354;2022-12-18T02:39:59;22.45;;;10.99;;
74180;SDS011;62544;50.826;14.354;2022-12-18T02:44:07;23.09;;;10.64;;
74180;SDS011;62544;50.826;14.354;2022-12-18T02:48:07;23.09;;;10.64;;
74180;SDS011;62544;50.826;14.354;2022-12-18T02:52:24;45.41;;;17.48;;
74180;SDS011;62544;50.826;14.354;2022-12-18T02:56:16;45.41;;;17.48;;
74180;SDS011;62544;50.826;14.354;2022-12-18T03:00:41;45.41;;;17.48;;
74180;SDS011;62544;50.826;14.354;2022-12-18T03:04:27;22.93;;;11.17;;
74180;SDS011;62544;50.826;14.354;2022-12-18T03:08:28;22.93;;;11.17;;
74180;SDS011;62544;50.826;14.354;2022-12-18T03:12:32;20.92;;;10.46;;
74180;SDS011;62544;50.826;14.354;2022-12-18T03:16:35;20.92;;;10.46;;
74180;SDS011;62544;50.826;14.354;2022-12-18T03:20:39;22.45;;;10.58;;
74180;SDS011;62544;50.826;14.354;2022-12-18T03:24:44;22.45;;;10.58;;
74180;SDS011;62544;50.826;14.354;2022-12-18T03:28:50;22.45;;;10.58;;
74180;SDS011;62544;50.826;14.354;2022-12-18T03:32:56;21.77;;;10.84;;
74180;SDS011;62544;50.826;14.354;2022-12-18T03:36:55;21.77;;;10.84;;
74180;SDS011;62544;50.826;14.354;2022-12-18T03:41:01;23.88;;;11.49;;
74180;SDS011;62544;50.826;14.354;2022-12-18T03:45:08;23.88;;;11.49;;
74180;SDS011;62544;50.826;14.354;2022-12-18T03:57:16;21.81;;;10.23;;
74180;SDS011;62544;50.826;14.354;2022-12-18T04:01:19;22.09;;;9.81;;
74180;SDS011;62544;50.826;14.354;2022-12-18T04:05:23;22.09;;;9.81;;
74180;SDS011;62544;50.826;14.354;2022-12-18T04:09:27;22.09;;;9.81;;
74180;SDS011;62544;50.826;14.354;2022-12-18T04:13:35;23.67;;;9.95;;
74180;SDS011;62544;50.826;14.354;2022-12-18T04:17:35;23.67;;;9.95;;
74180;SDS011;62544;50.826;14.354;2022-12-18T04:21:39;25.73;;;11.58;;
74180;SDS011;62544;50.826;14.354;2022-12-18T04:25:43;25.73;;;11.58;;
74180;SDS011;62544;50.826;14.354;2022-12-18T04:29:47;25.73;;;11.58;;
74180;SDS011;62544;50.826;14.354;2022-12-18T04:33:51;27.81;;;11.04;;
74180;SDS011;62544;50.826;14.354;2022-12-18T04:37:55;27.81;;;11.04;;
74180;SDS011;62544;50.826;14.354;2022-12-18T04:41:59;27.29;;;12.22;;
74180;SDS011;62544;50.826;14.354;2022-12-18T04:46:04;27.29;;;12.22;;
74180;SDS011;62544;50.826;14.354;2022-12-18T04:50:07;27.29;;;12.22;;
74180;SDS011;62544;50.826;14.354;2022-12-18T04:54:11;29.42;;;12.61;;
74180;SDS011;62544;50.826;14.354;2022-12-18T04:58:15;29.42;;;12.61;;
74180;SDS011;62544;50.826;14.354;2022-12-18T05:02:19;24.98;;;10.98;;
74180;SDS011;62544;50.826;14.354;2022-12-18T05:06:23;24.98;;;10.98;;
74180;SDS011;62544;50.826;14.354;2022-12-18T05:10:27;28.27;;;12.63;;
74180;SDS011;62544;50.826;14.354;2022-12-18T05:14:31;28.27;;;12.63;;
74180;SDS011;62544;50.826;14.354;2022-12-18T05:18:35;28.27;;;12.63;;
74180;SDS011;62544;50.826;14.354;2022-12-18T05:22:39;27.23;;;11.73;;
74180;SDS011;62544;50.826;14.354;2022-12-18T05:26:43;27.23;;;11.73;;
74180;SDS011;62544;50.826;14.354;2022-12-18T05:30:51;24.84;;;11.61;;
74180;SDS011;62544;50.826;14.354;2022-12-18T05:34:51;24.84;;;11.61;;
74180;SDS011;62544;50.826;14.354;2022-12-18T05:38:55;24.84;;;11.61;;
74180;SDS011;62544;50.826;14.354;2022-12-18T05:42:59;28.75;;;11.38;;
74180;SDS011;62544;50.826;14.354;2022-12-18T05:47:03;28.75;;;11.38;;
74180;SDS011;62544;50.826;14.354;2022-12-18T05:51:09;20.31;;;9.96;;
74180;SDS011;62544;50.826;14.354;2022-12-18T05:55:11;20.31;;;9.96;;
74180;SDS011;62544;50.826;14.354;2022-12-18T05:59:15;20.31;;;9.96;;
74180;SDS011;62544;50.826;14.354;2022-12-18T06:03:19;18.31;;;8.79;;
74180;SDS011;62544;50.826;14.354;2022-12-18T06:07:23;18.31;;;8.79;;
74180;SDS011;62544;50.826;14.354;2022-12-18T06:11:27;20.29;;;9.36;;
74180;SDS011;62544;50.826;14.354;2022-12-18T06:15:31;20.29;;;9.36;;
74180;SDS011;62544;50.826;14.354;2022-12-18T06:19:35;20.29;;;9.36;;
74180;SDS011;62544;50.826;14.354;2022-12-18T06:23:39;16.72;;;7.91;;
74180;SDS011;62544;50.826;14.354;2022-12-18T06:27:43;16.72;;;7.91;;
74180;SDS011;62544;50.826;14.354;2022-12-18T06:31:47;17.55;;;7.74;;
74180;SDS011;62544;50.826;14.354;2022-12-18T06:35:51;17.55;;;7.74;;
74180;SDS011;62544;50.826;14.354;2022-12-18T06:39:55;17.55;;;7.74;;
74180;SDS011;62544;50.826;14.354;2022-12-18T06:43:59;18.14;;;8.08;;
74180;SDS011;62544;50.826;14.354;2022-12-18T06:48:03;18.14;;;8.08;;
74180;SDS011;62544;50.826;14.354;2022-12-18T06:52:07;17.76;;;7.61;;
74180;SDS011;62544;50.826;14.354;2022-12-18T06:56:11;17.76;;;7.61;;
74180;SDS011;62544;50.826;14.354;2022-12-18T07:00:15;17.76;;;7.61;;
74180;SDS011;62544;50.826;14.354;2022-12-18T07:04:19;20.38;;;8.53;;
74180;SDS011;62544;50.826;14.354;2022-12-18T07:08:23;20.38;;;8.53;;
74180;SDS011;62544;50.826;14.354;2022-12-18T07:12:27;19.40;;;8.60;;
74180;SDS011;62544;50.826;14.354;2022-12-18T07:16:31;19.40;;;8.60;;
74180;SDS011;62544;50.826;14.354;2022-12-18T07:20:35;17.83;;;8.16;;
74180;SDS011;62544;50.826;14.354;2022-12-18T07:24:39;17.83;;;8.16;;
74180;SDS011;62544;50.826;14.354;2022-12-18T07:28:43;17.83;;;8.16;;
74180;SDS011;62544;50.826;14.354;2022-12-18T07:32:47;18.62;;;7.64;;
74180;SDS011;62544;50.826;14.354;2022-12-18T07:36:51;18.62;;;7.64;;
74180;SDS011;62544;50.826;14.354;2022-12-18T07:40:59;16.41;;;7.00;;
74180;SDS011;62544;50.826;14.354;2022-12-18T07:44:59;16.41;;;7.00;;
74180;SDS011;62544;50.826;14.354;2022-12-18T07:49:03;16.41;;;7.00;;
74180;SDS011;62544;50.826;14.354;2022-12-18T07:53:07;16.20;;;7.72;;
74180;SDS011;62544;50.826;14.354;2022-12-18T07:57:11;16.20;;;7.72;;
74180;SDS011;62544;50.826;14.354;2022-12-18T08:01:15;20.06;;;8.22;;
74180;SDS011;62544;50.826;14.354;2022-12-18T08:05:19;20.06;;;8.22;;
74180;SDS011;62544;50.826;14.354;2022-12-18T08:09:23;20.06;;;8.22;;
74180;SDS011;62544;50.826;14.354;2022-12-18T08:13:27;20.22;;;9.19;;
74180;SDS011;62544;50.826;14.354;2022-12-18T08:17:31;20.22;;;9.19;;
74180;SDS011;62544;50.826;14.354;2022-12-18T08:21:35;20.98;;;9.16;;
74180;SDS011;62544;50.826;14.354;2022-12-18T08:25:39;20.98;;;9.16;;
74180;SDS011;62544;50.826;14.354;2022-12-18T08:29:43;20.98;;;9.16;;
74180;SDS011;62544;50.826;14.354;2022-12-18T08:33:50;18.79;;;8.32;;
74180;SDS011;62544;50.826;14.354;2022-12-18T08:37:51;18.79;;;8.32;;
74180;SDS011;62544;50.826;14.354;2022-12-18T08:41:55;22.29;;;9.36;;
74180;SDS011;62544;50.826;14.354;2022-12-18T08:45:59;22.29;;;9.36;;
74180;SDS011;62544;50.826;14.354;2022-12-18T08:50:03;22.29;;;9.36;;
74180;SDS011;62544;50.826;14.354;2022-12-18T08:54:07;20.46;;;9.00;;
74180;SDS011;62544;50.826;14.354;2022-12-18T08:58:11;20.46;;;9.00;;
74180;SDS011;62544;50.826;14.354;2022-12-18T09:02:15;16.76;;;7.79;;
74180;SDS011;62544;50.826;14.354;2022-12-18T09:06:20;16.76;;;7.79;;
74180;SDS011;62544;50.826;14.354;2022-12-18T09:10:23;16.76;;;7.79;;
74180;SDS011;62544;50.826;14.354;2022-12-18T09:14:27;17.87;;;8.38;;
74180;SDS011;62544;50.826;14.354;2022-12-18T09:18:31;17.87;;;8.38;;
74180;SDS011;62544;50.826;14.354;2022-12-18T09:22:35;19.37;;;8.32;;
74180;SDS011;62544;50.826;14.354;2022-12-18T09:26:39;19.37;;;8.32;;
74180;SDS011;62544;50.826;14.354;2022-12-18T09:30:44;18.93;;;7.98;;
74180;SDS011;62544;50.826;14.354;2022-12-18T09:34:47;18.93;;;7.98;;
74180;SDS011;62544;50.826;14.354;2022-12-18T09:38:51;18.93;;;7.98;;
74180;SDS011;62544;50.826;14.354;2022-12-18T09:42:59;16.36;;;7.74;;
74180;SDS011;62544;50.826;14.354;2022-12-18T09:51:09;20.52;;;8.86;;
74180;SDS011;62544;50.826;14.354;2022-12-18T09:55:20;20.52;;;8.86;;
74180;SDS011;62544;50.826;14.354;2022-12-18T09:59:18;20.52;;;8.86;;
74180;SDS011;62544;50.826;14.354;2022-12-18T10:03:15;16.79;;;7.97;;
74180;SDS011;62544;50.826;14.354;2022-12-18T10:07:21;16.79;;;7.97;;
74180;SDS011;62544;50.826;14.354;2022-12-18T10:11:34;19.94;;;8.51;;
74180;SDS011;62544;50.826;14.354;2022-12-18T10:15:33;19.94;;;8.51;;
74180;SDS011;62544;50.826;14.354;2022-12-18T10:19:49;19.94;;;8.51;;
74180;SDS011;62544;50.826;14.354;2022-12-18T10:27:39;18.69;;;9.62;;
74180;SDS011;62544;50.826;14.354;2022-12-18T10:31:43;18.20;;;8.67;;
74180;SDS011;62544;50.826;14.354;2022-12-18T10:35:48;18.20;;;8.67;;
74180;SDS011;62544;50.826;14.354;2022-12-18T10:40:10;18.20;;;8.67;;
74180;SDS011;62544;50.826;14.354;2022-12-18T10:47:59;18.55;;;9.74;;
74180;SDS011;62544;50.826;14.354;2022-12-18T10:52:18;17.26;;;9.16;;
74180;SDS011;62544;50.826;14.354;2022-12-18T10:56:07;17.26;;;9.16;;
74180;SDS011;62544;50.826;14.354;2022-12-18T11:04:17;18.40;;;9.42;;
74180;SDS011;62544;50.826;14.354;2022-12-18T11:08:20;18.40;;;9.42;;
74180;SDS011;62544;50.826;14.354;2022-12-18T11:12:23;21.77;;;10.14;;
74180;SDS011;62544;50.826;14.354;2022-12-18T11:16:27;21.77;;;10.14;;
74180;SDS011;62544;50.826;14.354;2022-12-18T11:20:34;20.11;;;9.46;;
74180;SDS011;62544;50.826;14.354;2022-12-18T11:24:35;20.11;;;9.46;;
74180;SDS011;62544;50.826;14.354;2022-12-18T11:29:07;20.11;;;9.46;;
74180;SDS011;62544;50.826;14.354;2022-12-18T11:32:43;20.32;;;9.60;;
74180;SDS011;62544;50.826;14.354;2022-12-18T11:36:47;20.32;;;9.60;;
74180;SDS011;62544;50.826;14.354;2022-12-18T11:41:00;24.50;;;11.27;;
74180;SDS011;62544;50.826;14.354;2022-12-18T11:44:59;24.50;;;11.27;;
74180;SDS011;62544;50.826;14.354;2022-12-18T11:49:17;24.50;;;11.27;;
74180;SDS011;62544;50.826;14.354;2022-12-18T11:53:03;26.51;;;11.38;;
74180;SDS011;62544;50.826;14.354;2022-12-18T11:57:10;26.51;;;11.38;;
74180;SDS011;62544;50.826;14.354;2022-12-18T12:09:22;26.59;;;12.01;;
74180;SDS011;62544;50.826;14.354;2022-12-18T12:13:30;32.61;;;14.06;;
74180;SDS011;62544;50.826;14.354;2022-12-18T12:17:34;32.61;;;14.06;;
74180;SDS011;62544;50.826;14.354;2022-12-18T12:21:36;29.80;;;13.53;;
74180;SDS011;62544;50.826;14.354;2022-12-18T12:29:58;29.80;;;13.53;;
74180;SDS011;62544;50.826;14.354;2022-12-18T12:37:57;28.15;;;12.14;;
74180;SDS011;62544;50.826;14.354;2022-12-18T12:41:51;27.22;;;11.54;;
74180;SDS011;62544;50.826;14.354;2022-12-18T12:45:56;27.22;;;11.54;;
74180;SDS011;62544;50.826;14.354;2022-12-18T12:49:59;27.22;;;11.54;;
74180;SDS011;62544;50.826;14.354;2022-12-18T12:54:04;31.29;;;13.87;;
74180;SDS011;62544;50.826;14.354;2022-12-18T12:58:17;31.29;;;13.87;;
74180;SDS011;62544;50.826;14.354;2022-12-18T13:02:22;25.96;;;10.18;;
74180;SDS011;62544;50.826;14.354;2022-12-18T13:06:18;25.96;;;10.18;;
74180;SDS011;62544;50.826;14.354;2022-12-18T13:10:23;25.96;;;10.18;;
74180;SDS011;62544;50.826;14.354;2022-12-18T13:14:24;26.29;;;10.91;;
74180;SDS011;62544;50.826;14.354;2022-12-18T13:18:27;26.29;;;10.91;;
74180;SDS011;62544;50.826;14.354;2022-12-18T13:22:33;33.42;;;13.97;;
74180;SDS011;62544;50.826;14.354;2022-12-18T13:26:35;33.42;;;13.97;;
74180;SDS011;62544;50.826;14.354;2022-12-18T13:30:44;23.13;;;9.89;;
74180;SDS011;62544;50.826;14.354;2022-12-18T13:34:43;23.13;;;9.89;;
74180;SDS011;62544;50.826;14.354;2022-12-18T13:38:47;23.13;;;9.89;;
74180;SDS011;62544;50.826;14.354;2022-12-18T13:42:51;24.60;;;10.82;;
74180;SDS011;62544;50.826;14.354;2022-12-18T13:46:55;24.60;;;10.82;;
74180;SDS011;62544;50.826;14.354;2022-12-18T13:51:00;22.24;;;9.79;;
74180;SDS011;62544;50.826;14.354;2022-12-18T13:55:04;22.24;;;9.79;;
74180;SDS011;62544;50.826;14.354;2022-12-18T14:03:18;22.30;;;9.61;;
74180;SDS011;62544;50.826;14.354;2022-12-18T14:07:25;22.30;;;9.61;;
74180;SDS011;62544;50.826;14.354;2022-12-18T14:11:20;26.22;;;11.26;;
74180;SDS011;62544;50.826;14.354;2022-12-18T14:19:27;26.22;;;11.26;;
74180;SDS011;62544;50.826;14.354;2022-12-18T14:23:35;26.32;;;11.13;;
74180;SDS011;62544;50.826;14.354;2022-12-18T14:27:37;26.32;;;11.13;;
74180;SDS011;62544;50.826;14.354;2022-12-18T14:31:39;26.70;;;11.08;;
74180;SDS011;62544;50.826;14.354;2022-12-18T14:35:53;26.70;;;11.08;;
74180;SDS011;62544;50.826;14.354;2022-12-18T14:39:57;26.70;;;11.08;;
74180;SDS011;62544;50.826;14.354;2022-12-18T14:43:52;29.17;;;12.13;;
74180;SDS011;62544;50.826;14.354;2022-12-18T14:47:56;29.17;;;12.13;;
74180;SDS011;62544;50.826;14.354;2022-12-18T14:52:13;29.84;;;12.94;;
74180;SDS011;62544;50.826;14.354;2022-12-18T14:56:04;29.84;;;12.94;;
74180;SDS011;62544;50.826;14.354;2022-12-18T15:00:11;29.84;;;12.94;;
74180;SDS011;62544;50.826;14.354;2022-12-18T15:04:25;28.86;;;13.09;;
74180;SDS011;62544;50.826;14.354;2022-12-18T15:08:32;28.86;;;13.09;;
74180;SDS011;62544;50.826;14.354;2022-12-18T15:12:24;27.70;;;11.72;;
74180;SDS011;62544;50.826;14.354;2022-12-18T15:16:23;27.70;;;11.72;;
74180;SDS011;62544;50.826;14.354;2022-12-18T15:20:27;27.70;;;11.72;;
74180;SDS011;62544;50.826;14.354;2022-12-18T15:24:31;25.30;;;10.76;;
74180;SDS011;62544;50.826;14.354;2022-12-18T15:32:39;26.33;;;10.21;;
74180;SDS011;62544;50.826;14.354;2022-12-18T15:36:43;26.33;;;10.21;;
74180;SDS011;62544;50.826;14.354;2022-12-18T15:40:47;29.80;;;11.80;;
74180;SDS011;62544;50.826;14.354;2022-12-18T15:44:51;29.80;;;11.80;;
74180;SDS011;62544;50.826;14.354;2022-12-18T15:48:55;29.80;;;11.80;;
74180;SDS011;62544;50.826;14.354;2022-12-18T15:52:59;28.66;;;11.07;;
74180;SDS011;62544;50.826;14.354;2022-12-18T15:57:03;28.66;;;11.07;;
74180;SDS011;62544;50.826;14.354;2022-12-18T16:01:08;32.12;;;12.33;;
74180;SDS011;62544;50.826;14.354;2022-12-18T16:05:13;32.12;;;12.33;;
74180;SDS011;62544;50.826;14.354;2022-12-18T16:09:15;32.12;;;12.33;;
74180;SDS011;62544;50.826;14.354;2022-12-18T16:13:19;38.11;;;14.31;;
74180;SDS011;62544;50.826;14.354;2022-12-18T16:17:23;38.11;;;14.31;;
74180;SDS011;62544;50.826;14.354;2022-12-18T16:21:27;33.41;;;12.89;;
74180;SDS011;62544;50.826;14.354;2022-12-18T16:25:31;33.41;;;12.89;;
74180;SDS011;62544;50.826;14.354;2022-12-18T16:29:35;33.41;;;12.89;;
74180;SDS011;62544;50.826;14.354;2022-12-18T16:33:39;28.91;;;10.77;;
74180;SDS011;62544;50.826;14.354;2022-12-18T16:37:43;28.91;;;10.77;;
74180;SDS011;62544;50.826;14.354;2022-12-18T16:41:47;25.11;;;10.34;;
74180;SDS011;62544;50.826;14.354;2022-12-18T16:45:51;25.11;;;10.34;;
74180;SDS011;62544;50.826;14.354;2022-12-18T16:49:55;25.11;;;10.34;;
74180;SDS011;62544;50.826;14.354;2022-12-18T16:53:59;22.73;;;8.23;;
74180;SDS011;62544;50.826;14.354;2022-12-18T16:58:03;22.73;;;8.23;;
74180;SDS011;62544;50.826;14.354;2022-12-18T17:02:13;23.65;;;9.18;;
74180;SDS011;62544;50.826;14.354;2022-12-18T17:06:11;23.65;;;9.18;;
74180;SDS011;62544;50.826;14.354;2022-12-18T17:10:15;23.65;;;9.18;;
74180;SDS011;62544;50.826;14.354;2022-12-18T17:14:20;25.80;;;9.99;;
74180;SDS011;62544;50.826;14.354;2022-12-18T17:18:23;25.80;;;9.99;;
74180;SDS011;62544;50.826;14.354;2022-12-18T17:22:27;27.45;;;10.74;;
74180;SDS011;62544;50.826;14.354;2022-12-18T17:26:36;27.45;;;10.74;;
74180;SDS011;62544;50.826;14.354;2022-12-18T17:30:35;27.45;;;10.74;;
74180;SDS011;62544;50.826;14.354;2022-12-18T17:34:39;23.13;;;8.82;;
74180;SDS011;62544;50.826;14.354;2022-12-18T17:38:48;23.13;;;8.82;;
74180;SDS011;62544;50.826;14.354;2022-12-18T17:42:47;21.43;;;8.54;;
74180;SDS011;62544;50.826;14.354;2022-12-18T17:46:51;21.43;;;8.54;;
74180;SDS011;62544;50.826;14.354;2022-12-18T17:50:59;20.09;;;7.66;;
74180;SDS011;62544;50.826;14.354;2022-12-18T17:54:59;20.09;;;7.66;;
74180;SDS011;62544;50.826;14.354;2022-12-18T17:59:03;20.09;;;7.66;;
74180;SDS011;62544;50.826;14.354;2022-12-18T18:03:07;24.24;;;9.55;;
74180;SDS011;62544;50.826;14.354;2022-12-18T18:07:11;24.24;;;9.55;;
74180;SDS011;62544;50.826;14.354;2022-12-18T18:11:16;26.12;;;10.10;;
74180;SDS011;62544;50.826;14.354;2022-12-18T18:15:19;26.12;;;10.10;;
74180;SDS011;62544;50.826;14.354;2022-12-18T18:19:26;26.12;;;10.10;;
74180;SDS011;62544;50.826;14.354;2022-12-18T18:23:27;27.00;;;9.74;;
74180;SDS011;62544;50.826;14.354;2022-12-18T18:27:31;27.00;;;9.74;;
74180;SDS011;62544;50.826;14.354;2022-12-18T18:31:35;22.76;;;9.20;;
74180;SDS011;62544;50.826;14.354;2022-12-18T18:35:42;22.76;;;9.20;;
74180;SDS011;62544;50.826;14.354;2022-12-18T18:39:43;22.76;;;9.20;;
74180;SDS011;62544;50.826;14.354;2022-12-18T18:43:47;23.73;;;9.52;;
74180;SDS011;62544;50.826;14.354;2022-12-18T18:47:51;23.73;;;9.52;;
74180;SDS011;62544;50.826;14.354;2022-12-18T18:51:55;20.64;;;8.10;;
74180;SDS011;62544;50.826;14.354;2022-12-18T18:55:59;20.64;;;8.10;;
74180;SDS011;62544;50.826;14.354;2022-12-18T19:00:03;20.64;;;8.10;;
74180;SDS011;62544;50.826;14.354;2022-12-18T19:04:07;20.88;;;8.52;;
74180;SDS011;62544;50.826;14.354;2022-12-18T19:08:11;20.88;;;8.52;;
74180;SDS011;62544;50.826;14.354;2022-12-18T19:12:15;23.57;;;9.65;;
74180;SDS011;62544;50.826;14.354;2022-12-18T19:16:19;23.57;;;9.65;;
74180;SDS011;62544;50.826;14.354;2022-12-18T19:20:23;23.57;;;9.65;;
74180;SDS011;62544;50.826;14.354;2022-12-18T19:24:27;23.00;;;8.88;;
74180;SDS011;62544;50.826;14.354;2022-12-18T19:28:31;23.00;;;8.88;;
74180;SDS011;62544;50.826;14.354;2022-12-18T19:32:35;22.05;;;9.19;;
74180;SDS011;62544;50.826;14.354;2022-12-18T19:36:40;22.05;;;9.19;;
74180;SDS011;62544;50.826;14.354;2022-12-18T19:40:43;24.71;;;9.99;;
74180;SDS011;62544;50.826;14.354;2022-12-18T19:44:47;24.71;;;9.99;;
74180;SDS011;62544;50.826;14.354;2022-12-18T19:48:51;24.71;;;9.99;;
74180;SDS011;62544;50.826;14.354;2022-12-18T19:52:55;21.28;;;8.89;;
74180;SDS011;62544;50.826;14.354;2022-12-18T19:57:02;21.28;;;8.89;;
74180;SDS011;62544;50.826;14.354;2022-12-18T20:01:03;23.70;;;10.32;;
74180;SDS011;62544;50.826;14.354;2022-12-18T20:05:08;23.70;;;10.32;;
74180;SDS011;62544;50.826;14.354;2022-12-18T20:09:11;23.70;;;10.32;;
74180;SDS011;62544;50.826;14.354;2022-12-18T20:13:15;24.53;;;10.07;;
74180;SDS011;62544;50.826;14.354;2022-12-18T20:17:22;24.53;;;10.07;;
74180;SDS011;62544;50.826;14.354;2022-12-18T20:21:24;24.61;;;10.07;;
74180;SDS011;62544;50.826;14.354;2022-12-18T20:25:27;24.61;;;10.07;;
74180;SDS011;62544;50.826;14.354;2022-12-18T20:29:31;24.61;;;10.07;;
74180;SDS011;62544;50.826;14.354;2022-12-18T20:33:35;22.86;;;9.69;;
74180;SDS011;62544;50.826;14.354;2022-12-18T20:37:39;22.86;;;9.69;;
74180;SDS011;62544;50.826;14.354;2022-12-18T20:41:43;24.89;;;10.91;;
74180;SDS011;62544;50.826;14.354;2022-12-18T20:45:47;24.89;;;10.91;;
74180;SDS011;62544;50.826;14.354;2022-12-18T20:49:51;24.89;;;10.91;;
74180;SDS011;62544;50.826;14.354;2022-12-18T20:53:55;24.75;;;11.15;;
74180;SDS011;62544;50.826;14.354;2022-12-18T20:57:59;24.75;;;11.15;;
74180;SDS011;62544;50.826;14.354;2022-12-18T21:02:03;25.30;;;10.96;;
74180;SDS011;62544;50.826;14.354;2022-12-18T21:06:07;25.30;;;10.96;;
74180;SDS011;62544;50.826;14.354;2022-12-18T21:10:11;25.30;;;10.96;;
74180;SDS011;62544;50.826;14.354;2022-12-18T21:14:19;26.10;;;11.84;;
74180;SDS011;62544;50.826;14.354;2022-12-18T21:18:19;26.10;;;11.84;;
74180;SDS011;62544;50.826;14.354;2022-12-18T21:22:23;28.16;;;12.62;;
74180;SDS011;62544;50.826;14.354;2022-12-18T21:26:28;28.16;;;12.62;;
74180;SDS011;62544;50.826;14.354;2022-12-18T21:30:31;28.16;;;12.62;;
74180;SDS011;62544;50.826;14.354;2022-12-18T21:34:35;28.40;;;12.90;;
74180;SDS011;62544;50.826;14.354;2022-12-18T21:38:39;28.40;;;12.90;;
74180;SDS011;62544;50.826;14.354;2022-12-18T21:42:43;26.58;;;11.70;;
74180;SDS011;62544;50.826;14.354;2022-12-18T21:46:48;26.58;;;11.70;;
74180;SDS011;62544;50.826;14.354;2022-12-18T21:50:51;25.97;;;11.83;;
74180;SDS011;62544;50.826;14.354;2022-12-18T21:54:55;25.97;;;11.83;;
74180;SDS011;62544;50.826;14.354;2022-12-18T21:58:59;25.97;;;11.83;;
74180;SDS011;62544;50.826;14.354;2022-12-18T22:03:03;26.80;;;12.31;;
74180;SDS011;62544;50.826;14.354;2022-12-18T22:07:07;26.80;;;12.31;;
74180;SDS011;62544;50.826;14.354;2022-12-18T22:11:11;24.32;;;11.30;;
74180;SDS011;62544;50.826;14.354;2022-12-18T22:15:15;24.32;;;11.30;;
74180;SDS011;62544;50.826;14.354;2022-12-18T22:19:19;24.32;;;11.30;;
74180;SDS011;62544;50.826;14.354;2022-12-18T22:23:23;25.38;;;11.77;;
74180;SDS011;62544;50.826;14.354;2022-12-18T22:27:27;25.38;;;11.77;;
74180;SDS011;62544;50.826;14.354;2022-12-18T22:31:31;24.01;;;11.10;;
74180;SDS011;62544;50.826;14.354;2022-12-18T22:35:35;24.01;;;11.10;;
74180;SDS011;62544;50.826;14.354;2022-12-18T22:39:39;24.01;;;11.10;;
74180;SDS011;62544;50.826;14.354;2022-12-18T22:43:43;25.54;;;12.23;;
74180;SDS011;62544;50.826;14.354;2022-12-18T22:47:47;25.54;;;12.23;;
74180;SDS011;62544;50.826;14.354;2022-12-18T22:51:51;27.35;;;12.25;;
74180;SDS011;62544;50.826;14.354;2022-12-18T22:56:01;27.35;;;12.25;;
74180;SDS011;62544;50.826;14.354;2022-12-18T22:59:59;27.35;;;12.25;;
74180;SDS011;62544;50.826;14.354;2022-12-18T23:04:03;27.60;;;12.77;;
74180;SDS011;62544;50.826;14.354;2022-12-18T23:08:07;27.60;;;12.77;;
74180;SDS011;62544;50.826;14.354;2022-12-18T23:12:17;26.01;;;12.43;;
74180;SDS011;62544;50.826;14.354;2022-12-18T23:16:16;26.01;;;12.43;;
74180;SDS011;62544;50.826;14.354;2022-12-18T23:20:19;26.01;;;12.43;;
74180;SDS011;62544;50.826;14.354;2022-12-18T23:24:24;30.98;;;13.98;;
74180;SDS011;62544;50.826;14.354;2022-12-18T23:28:27;30.98;;;13.98;;
74180;SDS011;62544;50.826;14.354;2022-12-18T23:32:31;29.23;;;13.87;;
74180;SDS011;62544;50.826;14.354;2022-12-18T23:36:35;29.23;;;13.87;;
74180;SDS011;62544;50.826;14.354;2022-12-18T23:40:39;29.95;;;14.49;;
74180;SDS011;62544;50.826;14.354;2022-12-18T23:44:43;29.95;;;14.49;;
74180;SDS011;62544;50.826;14.354;2022-12-18T23:48:47;29.95;;;14.49;;
74180;SDS011;62544;50.826;14.354;2022-12-18T23:52:51;29.83;;;13.47;;
74180;SDS011;62544;50.826;14.354;2022-12-18T23:56:55;29.83;;;13.47;;
